Time;durP1;ratioP1;P1;durP2;ratioP2;P2;SDS_P1;SDS_P2;PMS_P1;PMS_P2;Temp;Humidity;BMP_temperature;BMP_pressure;BME280_temperature;BME280_humidity;BME280_pressure;Samples;Min_cycle;Max_cycle;Signal;HPM_P1;HPM_P2
2021/09/11 00:00:58;;;;;;;0.70;0.70;;;17.30;68.70;;;;;;5019686;27;95796;-79
2021/09/11 00:03:30;;;;;;;;;;;17.30;68.70;;;;;;5055821;27;95253;-78
2021/09/11 00:06:01;;;;;;;1.48;0.90;;;17.20;68.60;;;;;;5040160;27;95589;-77
2021/09/11 00:08:35;;;;;;;0.80;0.80;;;17.30;68.50;;;;;;5017138;28;95619;-78
2021/09/11 00:11:11;;;;;;;3.22;1.02;;;17.30;68.50;;;;;;5033563;28;95891;-78
2021/09/11 00:13:41;;;;;;;1.20;1.10;;;17.30;68.50;;;;;;5033447;28;95406;-78
2021/09/11 00:16:11;;;;;;;0.90;0.90;;;17.30;68.50;;;;;;5023389;27;95254;-78
2021/09/11 00:18:41;;;;;;;3.25;1.20;;;17.30;68.60;;;;;;4972363;28;99669;-77
2021/09/11 00:21:13;;;;;;;3.97;2.00;;;17.30;68.50;;;;;;5007382;28;95826;-77
2021/09/11 00:23:45;;;;;;;4.18;2.15;;;17.30;68.60;;;;;;4997016;28;95364;-78
2021/09/11 00:26:17;;;;;;;6.18;3.25;;;17.30;68.60;;;;;;4990750;28;95595;-77
2021/09/11 00:28:48;;;;;;;8.23;4.13;;;17.30;68.70;;;;;;5014552;28;95423;-78
2021/09/11 00:31:19;;;;;;;6.45;3.70;;;17.30;68.70;;;;;;5017259;28;95907;-69
2021/09/11 00:33:49;;;;;;;7.55;3.70;;;17.40;68.90;;;;;;5032019;28;95220;-72
2021/09/11 00:36:19;;;;;;;12.43;5.53;;;17.30;68.80;;;;;;5033979;28;96329;-77
2021/09/11 00:38:49;;;;;;;10.25;5.75;;;17.30;69.10;;;;;;4999997;28;95454;-76
2021/09/11 00:41:19;;;;;;;9.70;4.88;;;17.30;68.90;;;;;;5016641;28;95850;-78
2021/09/11 00:43:51;;;;;;;15.73;5.63;;;17.40;68.90;;;;;;5030279;28;95772;-77
2021/09/11 00:46:21;;;;;;;8.23;4.55;;;17.40;68.90;;;;;;5029425;27;95759;-77
2021/09/11 00:48:53;;;;;;;11.05;5.72;;;17.30;68.80;;;;;;5034617;28;95198;-77
2021/09/11 00:51:27;;;;;;;10.07;5.50;;;17.40;68.80;;;;;;5010411;28;97868;-77
2021/09/11 00:53:59;;;;;;;11.57;5.75;;;17.30;68.80;;;;;;5030522;28;97158;-78
2021/09/11 00:56:33;;;;;;;10.45;5.80;;;17.40;68.90;;;;;;5039142;28;95330;-77
2021/09/11 00:59:05;;;;;;;13.48;6.40;;;17.40;68.90;;;;;;5013158;28;95487;-77
2021/09/11 01:01:35;;;;;;;8.80;5.38;;;17.40;68.90;;;;;;5030189;27;96530;-78
2021/09/11 01:04:07;;;;;;;10.55;5.38;;;17.40;68.80;;;;;;5037681;28;95655;-77
2021/09/11 01:06:38;;;;;;;11.32;5.55;;;17.40;68.80;;;;;;5036614;28;95284;-77
2021/09/11 01:09:09;;;;;;;11.95;6.30;;;17.40;68.80;;;;;;5037992;28;96229;-76
2021/09/11 01:11:40;;;;;;;;;;;17.40;68.90;;;;;;5040753;28;95199;-78
2021/09/11 01:14:11;;;;;;;11.65;5.75;;;17.40;68.80;;;;;;5042395;28;95592;-70
2021/09/11 01:16:41;;;;;;;12.20;5.22;;;17.40;69.00;;;;;;5028806;27;96019;-77
2021/09/11 01:19:14;;;;;;;9.10;4.93;;;17.40;68.90;;;;;;5018618;27;95865;-77
2021/09/11 01:21:44;;;;;;;9.85;5.32;;;17.40;68.90;;;;;;5015071;28;97927;-78
2021/09/11 01:24:16;;;;;;;11.77;5.40;;;17.40;68.80;;;;;;5036664;28;95672;-78
2021/09/11 01:26:51;;;;;;;;;;;17.40;68.80;;;;;;5037597;27;95595;-78
2021/09/11 01:29:22;;;;;;;9.80;5.53;;;17.40;68.20;;;;;;5007181;28;95474;-78
2021/09/11 01:31:52;;;;;;;10.55;5.60;;;17.50;68.80;;;;;;5027492;27;95870;-78
2021/09/11 01:34:22;;;;;;;9.35;4.50;;;17.50;68.50;;;;;;4997807;28;96182;-77
2021/09/11 01:36:52;;;;;;;9.07;5.00;;;17.50;68.70;;;;;;5038752;28;95633;-78
2021/09/11 01:39:22;;;;;;;10.20;4.55;;;17.50;68.70;;;;;;5032938;28;95217;-77
2021/09/11 01:41:53;;;;;;;11.30;5.20;;;17.50;68.70;;;;;;5018996;28;96713;-77
2021/09/11 01:44:23;;;;;;;7.88;5.10;;;17.50;68.60;;;;;;5037832;28;95768;-78
2021/09/11 01:46:54;;;;;;;8.20;4.88;;;17.50;68.70;;;;;;5017417;28;96387;-78
2021/09/11 01:49:25;;;;;;;9.45;5.18;;;17.50;68.10;;;;;;5038318;28;96438;-78
2021/09/11 01:51:58;;;;;;;9.07;4.63;;;17.50;68.70;;;;;;5041096;28;96100;-78
2021/09/11 01:54:29;;;;;;;8.73;4.78;;;17.50;68.90;;;;;;5027083;28;95947;-78
2021/09/11 01:57:01;;;;;;;8.30;4.35;;;17.50;69.80;;;;;;5013175;28;95964;-79
2021/09/11 01:59:34;;;;;;;8.77;4.72;;;17.60;69.10;;;;;;5036377;28;95972;-69
2021/09/11 02:02:07;;;;;;;11.48;4.40;;;17.60;69.20;;;;;;5033542;27;95659;-79
2021/09/11 02:04:40;;;;;;;10.43;4.18;;;17.60;69.00;;;;;;4996755;28;96306;-79
2021/09/11 02:07:11;;;;;;;6.50;3.90;;;17.70;68.90;;;;;;5015419;28;95718;-78
2021/09/11 02:09:43;;;;;;;6.68;4.10;;;17.70;68.70;;;;;;5036012;28;95085;-78
2021/09/11 02:12:18;;;;;;;8.98;4.47;;;17.80;68.70;;;;;;5035562;28;95233;-77
2021/09/11 02:14:52;;;;;;;6.97;3.67;;;17.80;68.60;;;;;;4999459;28;95754;-69
2021/09/11 02:17:25;;;;;;;8.60;3.78;;;17.80;68.60;;;;;;5024522;27;96999;-78
2021/09/11 02:19:56;;;;;;;6.05;3.63;;;17.80;68.50;;;;;;5023579;27;96127;-78
2021/09/11 02:22:30;;;;;;;8.10;4.70;;;17.80;68.40;;;;;;5031763;28;95866;-78
2021/09/11 02:25:04;;;;;;;7.35;3.80;;;17.90;68.40;;;;;;5032718;28;95704;-78
2021/09/11 02:27:38;;;;;;;9.07;3.50;;;17.90;68.30;;;;;;5034694;28;95351;-78
2021/09/11 02:30:11;;;;;;;6.30;3.20;;;17.90;68.30;;;;;;5035137;28;95552;-77
2021/09/11 02:32:42;;;;;;;6.32;4.13;;;17.80;68.10;;;;;;5010577;28;95866;-76
2021/09/11 02:35:12;;;;;;;7.22;3.08;;;17.90;68.10;;;;;;5033719;28;96280;-77
2021/09/11 02:37:42;;;;;;;7.85;4.22;;;17.90;68.00;;;;;;5035014;28;96226;-78
2021/09/11 02:40:14;;;;;;;5.22;3.28;;;17.90;68.00;;;;;;5031562;28;96045;-78
2021/09/11 02:42:46;;;;;;;5.85;3.72;;;17.90;67.90;;;;;;5034635;28;95632;-70
2021/09/11 02:45:17;;;;;;;;;;;17.90;67.20;;;;;;5034310;28;96617;-78
2021/09/11 02:47:48;;;;;;;7.20;3.15;;;17.90;67.70;;;;;;5042844;28;95400;-79
2021/09/11 02:50:19;;;;;;;5.37;2.67;;;17.90;67.70;;;;;;5039239;28;95702;-79
2021/09/11 02:52:54;;;;;;;5.10;2.97;;;17.90;67.60;;;;;;5038588;28;95817;-70
2021/09/11 02:55:26;;;;;;;6.05;3.45;;;18.00;67.70;;;;;;5039130;28;95780;-76
2021/09/11 02:57:58;;;;;;;4.28;2.80;;;18.00;67.60;;;;;;5035008;28;95345;-78
2021/09/11 03:00:30;;;;;;;7.90;3.47;;;18.00;67.50;;;;;;5029018;27;96043;-78
2021/09/11 03:03:02;;;;;;;5.63;3.15;;;18.00;67.30;;;;;;5010960;28;96201;-78
2021/09/11 03:05:36;;;;;;;4.93;3.13;;;18.00;67.30;;;;;;5015552;28;95419;-78
2021/09/11 03:08:09;;;;;;;5.35;3.60;;;18.00;67.40;;;;;;5013370;28;96161;-79
2021/09/11 03:10:41;;;;;;;6.50;3.22;;;18.00;67.20;;;;;;5011267;28;95713;-78
2021/09/11 03:13:18;;;;;;;4.72;3.22;;;18.00;67.10;;;;;;5006525;28;96697;-78
2021/09/11 03:15:49;;;;;;;5.13;3.10;;;18.00;67.20;;;;;;5004077;28;97124;-79
2021/09/11 03:18:19;;;;;;;5.88;3.22;;;18.10;67.20;;;;;;5018638;27;95736;-78
2021/09/11 03:20:55;;;;;;;7.00;3.30;;;18.00;67.20;;;;;;5025790;27;95933;-78
2021/09/11 03:23:27;;;;;;;5.55;3.70;;;18.00;67.00;;;;;;5028662;28;96376;-78
2021/09/11 03:25:59;;;;;;;4.18;2.45;;;18.00;67.10;;;;;;5031641;28;95782;-77
2021/09/11 03:28:32;;;;;;;4.82;2.70;;;18.10;67.20;;;;;;5029582;28;96110;-78
2021/09/11 03:31:03;;;;;;;5.05;2.63;;;18.10;67.10;;;;;;5027413;27;96274;-78
2021/09/11 03:33:35;;;;;;;6.47;3.03;;;18.00;67.00;;;;;;5029974;28;96543;-78
2021/09/11 03:36:05;;;;;;;4.15;2.88;;;18.10;67.10;;;;;;5031659;28;95295;-78
2021/09/11 03:38:37;;;;;;;5.38;3.33;;;18.10;67.10;;;;;;5010893;28;95246;-78
2021/09/11 03:41:10;;;;;;;4.35;2.88;;;18.10;67.10;;;;;;5031919;28;96190;-78
2021/09/11 03:43:40;;;;;;;4.20;2.40;;;18.10;67.00;;;;;;5012091;28;96752;-70
2021/09/11 03:46:11;;;;;;;4.13;2.63;;;18.10;67.00;;;;;;5007136;28;95309;-79
2021/09/11 03:48:41;;;;;;;3.03;2.13;;;18.10;66.90;;;;;;5007431;28;95773;-79
2021/09/11 03:51:14;;;;;;;4.57;2.80;;;18.10;66.90;;;;;;5016842;28;95344;-78
2021/09/11 03:53:50;;;;;;;5.88;2.97;;;18.10;66.80;;;;;;5027937;28;97017;-80
2021/09/11 03:56:24;;;;;;;2.95;2.35;;;18.10;66.80;;;;;;5014532;28;95736;-79
2021/09/11 03:58:56;;;;;;;4.88;3.17;;;18.10;66.80;;;;;;5032035;28;95268;-69
2021/09/11 04:01:28;;;;;;;3.58;2.67;;;18.10;66.80;;;;;;5033018;27;95359;-77
2021/09/11 04:04:00;;;;;;;3.17;2.45;;;18.10;66.70;;;;;;5009954;28;98567;-78
2021/09/11 04:06:32;;;;;;;6.07;2.80;;;18.10;66.70;;;;;;5007863;28;96664;-67
2021/09/11 04:09:05;;;;;;;5.20;2.45;;;18.20;66.70;;;;;;5032803;28;95803;-78
2021/09/11 04:11:37;;;;;;;3.58;2.47;;;18.20;66.70;;;;;;5013824;28;95713;-78
2021/09/11 04:14:08;;;;;;;6.97;2.75;;;18.20;66.70;;;;;;5015500;28;95994;-78
2021/09/11 04:16:40;;;;;;;5.15;2.58;;;18.20;66.40;;;;;;5028106;27;96909;-77
2021/09/11 04:19:12;;;;;;;4.05;2.22;;;18.20;66.20;;;;;;4994962;28;96956;-78
2021/09/11 04:21:43;;;;;;;3.42;2.13;;;18.20;66.10;;;;;;5007507;28;96506;-79
2021/09/11 04:24:14;;;;;;;3.92;2.50;;;18.20;66.00;;;;;;5010698;28;96564;-76
2021/09/11 04:26:46;;;;;;;4.15;1.75;;;18.30;66.60;;;;;;5032320;27;96183;-78
2021/09/11 04:29:17;;;;;;;4.95;2.00;;;18.30;66.40;;;;;;5034284;28;95668;-78
2021/09/11 04:31:47;;;;;;;3.53;2.10;;;18.30;66.80;;;;;;5028588;27;96119;-77
2021/09/11 04:34:17;;;;;;;6.28;2.63;;;18.40;66.50;;;;;;5015039;28;95730;-78
2021/09/11 04:36:49;;;;;;;5.72;2.40;;;18.40;66.20;;;;;;5032280;28;96855;-76
2021/09/11 04:39:21;;;;;;;5.40;2.83;;;18.40;66.30;;;;;;5013645;28;95434;-77
2021/09/11 04:41:52;;;;;;;3.90;2.33;;;18.40;66.40;;;;;;5033625;28;95218;-77
2021/09/11 04:44:22;;;;;;;4.13;2.47;;;18.50;66.50;;;;;;5015242;28;95932;-76
2021/09/11 04:46:52;;;;;;;3.97;2.53;;;18.50;67.00;;;;;;5031659;28;95327;-77
2021/09/11 04:49:22;;;;;;;3.42;2.10;;;18.50;66.60;;;;;;5035713;28;95658;-77
2021/09/11 04:51:57;;;;;;;3.63;2.50;;;18.50;66.60;;;;;;5038256;28;95899;-76
2021/09/11 04:54:29;;;;;;;6.38;2.92;;;18.50;66.70;;;;;;5034950;28;96600;-81
2021/09/11 04:57:00;;;;;;;8.20;3.78;;;18.50;65.40;;;;;;5040965;28;95825;-80
2021/09/11 04:59:35;;;;;;;9.55;4.68;;;18.60;61.60;;;;;;5039335;28;95771;-77
2021/09/11 05:02:06;;;;;;;13.95;5.82;;;18.60;59.00;;;;;;5007657;28;96578;-76
2021/09/11 05:04:37;;;;;;;10.77;4.25;;;18.60;58.20;;;;;;5012422;28;96284;-75
2021/09/11 05:07:08;;;;;;;5.60;3.25;;;18.60;56.70;;;;;;4999825;28;96704;-68
2021/09/11 05:09:39;;;;;;;7.30;4.00;;;18.70;56.40;;;;;;5014087;28;96069;-75
2021/09/11 05:12:10;;;;;;;5.25;2.97;;;18.70;54.40;;;;;;4988939;28;95797;-74
2021/09/11 05:14:42;;;;;;;4.45;2.58;;;18.70;52.50;;;;;;5036050;28;95732;-74
2021/09/11 05:17:12;;;;;;;6.45;2.33;;;18.70;52.30;;;;;;5024009;27;96383;-76
2021/09/11 05:19:43;;;;;;;6.43;3.17;;;18.70;54.40;;;;;;5001824;27;96086;-77
2021/09/11 05:22:14;;;;;;;3.50;2.65;;;18.80;53.30;;;;;;5016019;28;95584;-76
2021/09/11 05:24:45;;;;;;;;;;;18.80;52.30;;;;;;5033922;28;95880;-77
2021/09/11 05:27:16;;;;;;;5.90;2.65;;;18.80;52.70;;;;;;5035055;28;95708;-76
2021/09/11 05:29:46;;;;;;;10.13;4.30;;;18.80;53.20;;;;;;5010110;28;95895;-76
2021/09/11 05:32:16;;;;;;;7.40;3.72;;;18.90;52.80;;;;;;5028720;27;96233;-75
2021/09/11 05:34:45;;;;;;;5.05;3.40;;;19.00;40.40;;;;;;5033468;28;96270;-76
2021/09/11 05:37:16;;;;;;;10.95;4.45;;;18.90;54.00;;;;;;5009977;28;96800;-76
2021/09/11 05:39:46;;;;;;;10.23;5.15;;;19.00;55.10;;;;;;5033618;28;95666;-76
2021/09/11 05:42:19;;;;;;;5.28;3.50;;;18.90;55.80;;;;;;5033494;28;95318;-75
2021/09/11 05:44:49;;;;;;;7.22;3.50;;;18.90;56.50;;;;;;5029862;28;95807;-77
2021/09/11 05:47:21;;;;;;;7.65;2.60;;;18.90;56.80;;;;;;5010374;28;97464;-76
2021/09/11 05:49:52;;;;;;;9.63;3.78;;;18.90;49.30;;;;;;5014052;28;95831;-75
2021/09/11 05:52:24;;;;;;;6.72;2.97;;;18.70;56.90;;;;;;5032936;28;95562;-76
2021/09/11 05:54:56;;;;;;;;;;;18.70;56.70;;;;;;5033970;28;95906;-77
2021/09/11 05:57:28;;;;;;;12.30;3.88;;;18.60;57.10;;;;;;5035034;28;96504;-74
2021/09/11 06:00:00;;;;;;;12.65;3.88;;;18.60;57.70;;;;;;5010792;28;95836;-73
2021/09/11 06:02:39;;;;;;;6.85;3.90;;;18.60;57.60;;;;;;5027517;28;95787;-76
2021/09/11 06:05:13;;;;;;;;;;;18.50;58.00;;;;;;5034241;28;96025;-76
2021/09/11 06:07:45;;;;;;;11.05;3.47;;;18.50;58.00;;;;;;5017564;28;96449;-77
2021/09/11 06:10:17;;;;;;;7.13;2.97;;;18.50;58.30;;;;;;5022431;28;95248;-74
2021/09/11 06:12:48;;;;;;;9.82;3.33;;;18.50;58.10;;;;;;5035639;28;95472;-75
2021/09/11 06:15:19;;;;;;;7.22;3.20;;;18.40;58.90;;;;;;5026651;27;95858;-74
2021/09/11 06:17:50;;;;;;;8.10;2.92;;;18.40;59.40;;;;;;4998201;27;95871;-75
2021/09/11 06:20:21;;;;;;;8.35;4.28;;;18.40;58.70;;;;;;5022298;27;95773;-75
2021/09/11 06:22:52;;;;;;;10.13;4.45;;;18.30;58.80;;;;;;5032046;28;95600;-74
2021/09/11 06:25:24;;;;;;;10.48;3.60;;;18.30;59.00;;;;;;5008236;28;96616;-75
2021/09/11 06:27:55;;;;;;;8.00;3.22;;;18.30;58.90;;;;;;5011300;28;95913;-75
2021/09/11 06:30:26;;;;;;;8.85;3.78;;;18.30;59.20;;;;;;5002389;28;96000;-73
2021/09/11 06:32:56;;;;;;;11.05;4.53;;;18.20;59.20;;;;;;5029111;28;95914;-74
2021/09/11 06:35:26;;;;;;;9.02;5.20;;;18.20;59.70;;;;;;5012720;28;95882;-74
2021/09/11 06:37:56;;;;;;;10.88;6.07;;;18.20;59.40;;;;;;5038704;28;96047;-74
2021/09/11 06:40:25;;;;;;;9.75;6.32;;;18.10;59.50;;;;;;5038185;28;95745;-73
2021/09/11 06:42:55;;;;;;;7.63;4.80;;;18.20;59.40;;;;;;5039133;28;95189;-74
2021/09/11 06:45:25;;;;;;;8.93;4.38;;;18.10;59.40;;;;;;5038799;27;96711;-76
2021/09/11 06:47:55;;;;;;;9.10;4.32;;;18.10;59.80;;;;;;5023674;28;95378;-76
2021/09/11 06:50:25;;;;;;;11.85;4.78;;;18.00;60.10;;;;;;5037063;28;95162;-75
2021/09/11 06:52:56;;;;;;;8.63;4.07;;;18.00;60.00;;;;;;5037856;27;95910;-75
2021/09/11 06:55:28;;;;;;;12.07;4.68;;;18.00;60.40;;;;;;5016546;28;97249;-75
2021/09/11 06:57:59;;;;;;;9.77;4.75;;;17.90;60.60;;;;;;5037160;28;96452;-73
2021/09/11 07:00:30;;;;;;;11.35;3.63;;;17.90;60.70;;;;;;5031736;28;95515;-75
2021/09/11 07:03:01;;;;;;;11.07;4.95;;;17.80;61.10;;;;;;5037009;28;95677;-74
2021/09/11 07:05:35;;;;;;;10.45;4.43;;;17.90;61.40;;;;;;5035987;28;96269;-75
2021/09/11 07:08:07;;;;;;;12.75;4.95;;;17.80;61.60;;;;;;5033440;28;95304;-75
2021/09/11 07:10:37;;;;;;;20.63;7.57;;;17.80;62.00;;;;;;5015997;28;95986;-74
2021/09/11 07:13:08;;;;;;;18.70;6.97;;;17.80;62.20;;;;;;5014394;28;95711;-74
2021/09/11 07:15:39;;;;;;;13.13;5.60;;;17.80;62.30;;;;;;5011174;27;97298;-75
2021/09/11 07:18:09;;;;;;;16.08;5.88;;;17.80;62.70;;;;;;5019999;27;95786;-73
2021/09/11 07:20:39;;;;;;;12.02;5.22;;;17.70;63.10;;;;;;5006957;28;95204;-75
2021/09/11 07:23:10;;;;;;;13.02;4.68;;;17.70;63.50;;;;;;5038734;28;95558;-74
2021/09/11 07:25:43;;;;;;;;;;;17.70;64.00;;;;;;5015864;28;95979;-74
2021/09/11 07:28:13;;;;;;;13.90;5.15;;;17.70;63.90;;;;;;5017900;28;95937;-74
2021/09/11 07:30:43;;;;;;;14.60;5.38;;;17.70;63.80;;;;;;5030521;28;95527;-74
2021/09/11 07:33:13;;;;;;;11.98;4.70;;;17.80;50.40;;;;;;5033828;28;95554;-75
2021/09/11 07:35:44;;;;;;;14.55;4.68;;;17.70;64.00;;;;;;5034807;28;95881;-74
2021/09/11 07:38:15;;;;;;;12.47;4.50;;;17.70;64.10;;;;;;5034383;28;95563;-75
2021/09/11 07:40:45;;;;;;;16.83;4.63;;;17.80;64.50;;;;;;5033878;28;96134;-74
2021/09/11 07:43:15;;;;;;;10.30;4.43;;;17.70;64.50;;;;;;5033927;28;97377;-74
2021/09/11 07:45:46;;;;;;;10.48;4.30;;;17.70;64.40;;;;;;5026286;28;95560;-75
2021/09/11 07:48:16;;;;;;;10.23;4.82;;;17.70;64.80;;;;;;4996005;28;97371;-74
2021/09/11 07:50:46;;;;;;;9.25;4.00;;;17.70;64.90;;;;;;4998428;28;95380;-75
2021/09/11 07:53:18;;;;;;;13.15;4.40;;;17.60;64.90;;;;;;5015431;28;95745;-75
2021/09/11 07:55:48;;;;;;;;;;;17.70;64.90;;;;;;5015076;28;95891;-76
2021/09/11 07:58:21;;;;;;;13.95;3.95;;;17.70;65.10;;;;;;5014699;28;95301;-75
2021/09/11 08:00:55;;;;;;;13.45;4.18;;;17.70;65.20;;;;;;4992824;28;97345;-75
2021/09/11 08:03:29;;;;;;;11.50;4.43;;;17.70;65.40;;;;;;4992921;28;95885;-76
2021/09/11 08:06:07;;;;;;;15.75;5.35;;;17.60;65.40;;;;;;5004009;28;96296;-71
2021/09/11 08:08:39;;;;;;;10.70;4.70;;;17.70;65.60;;;;;;5005020;28;96161;-70
2021/09/11 08:11:10;;;;;;;12.02;4.13;;;17.60;66.00;;;;;;4991850;28;96107;-72
2021/09/11 08:13:40;;;;;;;14.65;4.25;;;17.70;66.10;;;;;;4993985;28;97117;-75
2021/09/11 08:16:12;;;;;;;13.23;4.68;;;17.70;66.60;;;;;;5005921;28;95922;-73
2021/09/11 08:18:43;;;;;;;16.33;5.00;;;17.70;67.10;;;;;;5008319;27;96236;-73
2021/09/11 08:21:14;;;;;;;7.97;3.90;;;17.70;67.40;;;;;;5031243;27;95831;-72
2021/09/11 08:23:46;;;;;;;18.52;4.38;;;17.70;67.20;;;;;;5033467;28;95630;-73
2021/09/11 08:26:17;;;;;;;14.48;4.18;;;17.80;67.00;;;;;;5029845;28;95737;-72
2021/09/11 08:28:51;;;;;;;12.52;4.30;;;17.80;66.80;;;;;;5030531;28;95643;-73
2021/09/11 08:31:22;;;;;;;7.95;3.28;;;17.90;66.70;;;;;;5027178;27;95224;-72
2021/09/11 08:33:52;;;;;;;12.57;4.25;;;18.00;66.50;;;;;;5029976;28;95323;-70
2021/09/11 08:36:22;;;;;;;11.70;3.95;;;18.00;66.30;;;;;;5031156;28;95875;-72
2021/09/11 08:38:52;;;;;;;13.80;4.07;;;18.00;66.20;;;;;;5031454;28;95336;-72
2021/09/11 08:41:23;;;;;;;9.45;3.65;;;18.10;66.10;;;;;;5029300;28;95744;-72
2021/09/11 08:43:55;;;;;;;12.48;3.80;;;18.10;65.90;;;;;;5031329;28;95171;-72
2021/09/11 08:46:31;;;;;;;9.45;3.50;;;18.20;65.90;;;;;;5026117;27;96028;-72
2021/09/11 08:49:03;;;;;;;14.65;3.92;;;18.20;65.60;;;;;;5010514;28;95870;-74
2021/09/11 08:51:35;;;;;;;10.27;3.03;;;18.20;65.60;;;;;;5009977;28;98012;-72
2021/09/11 08:54:14;;;;;;;8.15;3.30;;;18.20;65.50;;;;;;5012265;28;95751;-72
2021/09/11 08:56:46;;;;;;;8.82;3.45;;;18.20;65.40;;;;;;5032445;28;95938;-74
2021/09/11 08:59:20;;;;;;;9.98;3.60;;;18.30;64.70;;;;;;5028437;28;95276;-73
2021/09/11 09:02:09;;;;;;;13.35;3.38;;;18.30;65.20;;;;;;5007976;28;95348;-73
2021/09/11 09:04:44;;;;;;;10.73;3.10;;;18.30;65.20;;;;;;5026796;28;96011;-72
2021/09/11 09:07:38;;;;;;;9.82;3.00;;;18.30;65.10;;;;;;5031032;28;96525;-72
2021/09/11 09:10:11;;;;;;;10.45;3.25;;;18.30;65.10;;;;;;5029482;28;96010;-70
2021/09/11 09:12:47;;;;;;;7.03;2.58;;;18.30;65.00;;;;;;5035205;27;95806;-71
2021/09/11 09:15:21;;;;;;;7.20;2.50;;;18.40;64.30;;;;;;5029670;27;95751;-73
2021/09/11 09:17:54;;;;;;;8.15;2.50;;;18.30;64.90;;;;;;4981974;28;96332;-73
2021/09/11 09:20:30;;;;;;;9.18;3.35;;;18.50;51.40;;;;;;4997454;28;96109;-72
2021/09/11 09:23:00;;;;;;;8.23;2.65;;;18.40;65.00;;;;;;5012497;28;95590;-72
2021/09/11 09:25:34;;;;;;;7.78;3.00;;;18.40;65.00;;;;;;5010720;28;95801;-72
2021/09/11 09:28:14;;;;;;;7.55;2.50;;;18.40;64.90;;;;;;4986677;28;96246;-72
2021/09/11 09:30:50;;;;;;;7.63;2.88;;;18.40;64.80;;;;;;5011423;28;97282;-73
2021/09/11 09:33:23;;;;;;;5.60;2.25;;;18.40;64.90;;;;;;5014378;28;95525;-72
2021/09/11 09:35:59;;;;;;;12.35;3.03;;;18.50;64.90;;;;;;4996867;28;95859;-72
2021/09/11 09:38:30;;;;;;;7.40;2.92;;;18.50;64.80;;;;;;5014667;28;96277;-71
2021/09/11 09:41:00;;;;;;;5.20;2.47;;;18.50;64.80;;;;;;5017591;28;95950;-72
2021/09/11 09:43:44;;;;;;;7.60;2.88;;;18.50;64.70;;;;;;5004291;28;95444;-72
2021/09/11 09:46:20;;;;;;;8.23;3.40;;;18.50;64.80;;;;;;5005051;28;95089;-73
2021/09/11 09:49:00;;;;;;;11.20;4.85;;;18.50;64.80;;;;;;5013400;28;95932;-74
2021/09/11 09:51:34;;;;;;;6.93;3.40;;;18.50;64.60;;;;;;4993448;28;97841;-73
2021/09/11 09:54:06;;;;;;;7.82;3.25;;;18.50;64.70;;;;;;4978998;28;95337;-73
2021/09/11 09:56:38;;;;;;;8.30;2.95;;;18.50;64.60;;;;;;4989879;28;95942;-74
2021/09/11 09:59:11;;;;;;;9.65;2.58;;;18.60;50.90;;;;;;5013959;28;95845;-71
2021/09/11 10:01:41;;;;;;;6.72;2.83;;;18.50;64.60;;;;;;4988586;28;96076;-72
2021/09/11 10:04:21;;;;;;;4.93;3.08;;;18.50;64.60;;;;;;4995605;28;95231;-71
2021/09/11 10:07:00;;;;;;;6.03;2.72;;;18.50;64.60;;;;;;5015575;28;95220;-73
2021/09/11 10:09:31;;;;;;;8.98;2.67;;;18.50;64.60;;;;;;5015177;28;95577;-72
2021/09/11 10:12:02;;;;;;;6.75;3.35;;;18.50;64.50;;;;;;5010814;28;96734;-72
2021/09/11 10:14:34;;;;;;;11.32;3.03;;;18.50;64.40;;;;;;5004879;28;95764;-72
2021/09/11 10:17:06;;;;;;;5.45;3.00;;;18.50;64.50;;;;;;5002759;28;95897;-72
2021/09/11 10:19:42;;;;;;;8.23;3.72;;;18.50;64.50;;;;;;4997697;28;95857;-72
2021/09/11 10:22:22;;;;;;;9.57;3.63;;;18.50;64.50;;;;;;5014719;28;95422;-73
2021/09/11 10:25:05;;;;;;;13.98;5.50;;;18.50;64.50;;;;;;4990031;28;95478;-72
2021/09/11 10:27:43;;;;;;;12.45;6.00;;;18.50;64.40;;;;;;5012370;28;95256;-73
2021/09/11 10:30:16;;;;;;;11.60;5.85;;;18.50;64.50;;;;;;5009673;28;95895;-71
2021/09/11 10:32:49;;;;;;;9.95;4.90;;;18.50;64.60;;;;;;5016985;28;102145;-72
2021/09/11 10:35:24;;;;;;;9.68;5.25;;;18.50;64.40;;;;;;5016674;28;95208;-72
2021/09/11 10:37:58;;;;;;;11.10;5.32;;;18.50;64.50;;;;;;5016661;28;95872;-72
2021/09/11 10:40:34;;;;;;;11.50;5.75;;;18.50;64.50;;;;;;5032826;28;95553;-73
2021/09/11 10:43:24;;;;;;;10.70;4.10;;;18.50;64.50;;;;;;5034573;28;95723;-70
2021/09/11 10:45:59;;;;;;;13.88;5.28;;;18.40;64.40;;;;;;5011984;28;96050;-73
2021/09/11 10:48:31;;;;;;;12.63;4.80;;;18.40;64.40;;;;;;5038997;28;95315;-70
2021/09/11 10:51:26;;;;;;;7.85;4.25;;;18.40;64.60;;;;;;5007550;28;96325;-74
2021/09/11 10:54:23;;;;;;;9.98;4.72;;;18.40;64.60;;;;;;5037178;28;95821;-73
2021/09/11 10:57:00;;;;;;;9.20;4.40;;;18.30;64.50;;;;;;5032559;28;95292;-72
2021/09/11 10:59:41;;;;;;;9.63;4.15;;;18.30;64.70;;;;;;5037648;28;95629;-72
2021/09/11 11:02:12;;;;;;;;;;;18.30;64.70;;;;;;5030769;28;96467;-72
2021/09/11 11:05:08;;;;;;;11.80;4.28;;;18.30;64.70;;;;;;5037633;28;97589;-72
2021/09/11 11:07:48;;;;;;;6.10;3.28;;;18.30;64.80;;;;;;5035163;28;95760;-72
2021/09/11 11:10:22;;;;;;;10.50;3.88;;;18.30;64.80;;;;;;5034870;28;95545;-77
2021/09/11 11:12:55;;;;;;;6.28;3.30;;;18.20;64.70;;;;;;5036696;28;96019;-71
2021/09/11 11:15:28;;;;;;;8.52;3.85;;;18.30;51.20;;;;;;5025315;28;95826;-71
2021/09/11 11:18:00;;;;;;;7.50;3.63;;;18.20;64.70;;;;;;5024675;27;97249;-71
2021/09/11 11:20:31;;;;;;;9.98;4.22;;;18.20;64.70;;;;;;5000229;28;95858;-72
2021/09/11 11:23:02;;;;;;;8.50;4.15;;;18.10;64.40;;;;;;5033995;28;96517;-71
2021/09/11 11:25:39;;;;;;;;;;;18.10;64.80;;;;;;5014478;28;95925;-71
2021/09/11 11:28:13;;;;;;;13.35;5.43;;;18.10;64.80;;;;;;5017768;28;95983;-72
2021/09/11 11:30:44;;;;;;;11.30;4.72;;;18.10;64.60;;;;;;5013670;28;95785;-71
2021/09/11 11:33:15;;;;;;;12.18;4.60;;;18.10;64.80;;;;;;5034247;28;95720;-69
2021/09/11 11:35:45;;;;;;;10.68;4.97;;;18.10;64.90;;;;;;5032759;27;95717;-69
2021/09/11 11:38:18;;;;;;;10.68;4.80;;;18.00;64.90;;;;;;5034612;28;95728;-72
2021/09/11 11:40:48;;;;;;;10.45;4.53;;;18.00;65.00;;;;;;5035495;28;95739;-72
2021/09/11 11:43:19;;;;;;;11.15;6.43;;;18.00;64.90;;;;;;5007699;28;96089;-72
2021/09/11 11:45:51;;;;;;;8.90;4.78;;;18.00;64.80;;;;;;5030806;28;96215;-72
2021/09/11 11:48:21;;;;;;;;;;;18.10;51.30;;;;;;5035923;28;95593;-72
2021/09/11 11:50:52;;;;;;;8.95;4.45;;;18.00;64.20;;;;;;5036996;28;95334;-72
2021/09/11 11:53:24;;;;;;;9.43;4.47;;;17.90;64.80;;;;;;5034283;28;95275;-73
2021/09/11 11:55:57;;;;;;;11.75;5.03;;;18.00;64.90;;;;;;5032934;28;95952;-72
2021/09/11 11:58:30;;;;;;;8.50;3.75;;;17.90;64.70;;;;;;5033552;28;95554;-72
2021/09/11 12:01:02;;;;;;;7.97;3.92;;;17.90;64.80;;;;;;5029919;28;95310;-72
2021/09/11 12:03:45;;;;;;;8.25;3.38;;;17.90;65.00;;;;;;5015185;28;95971;-71
2021/09/11 12:06:20;;;;;;;7.68;3.72;;;17.90;65.00;;;;;;5033686;28;95643;-71
2021/09/11 12:08:51;;;;;;;7.80;3.42;;;17.90;65.00;;;;;;5013804;28;95670;-71
2021/09/11 12:11:22;;;;;;;;;;;17.90;64.80;;;;;;5033269;28;95389;-72
2021/09/11 12:13:57;;;;;;;6.63;2.93;;;17.90;64.40;;;;;;5010254;28;96536;-72
2021/09/11 12:16:28;;;;;;;8.40;3.20;;;17.80;64.40;;;;;;5030063;28;96568;-72
2021/09/11 12:19:19;;;;;;;6.72;2.80;;;17.80;64.80;;;;;;5019754;27;95805;-72
2021/09/11 12:21:50;;;;;;;6.47;3.13;;;17.80;64.30;;;;;;5016423;28;95483;-71
2021/09/11 12:24:33;;;;;;;7.05;2.85;;;17.80;64.80;;;;;;5032737;28;95967;-71
2021/09/11 12:27:13;;;;;;;8.05;3.00;;;17.80;64.80;;;;;;5033433;27;95828;-72
2021/09/11 12:30:00;;;;;;;9.43;3.28;;;17.70;64.80;;;;;;5011045;28;95692;-69
2021/09/11 12:32:31;;;;;;;7.45;2.97;;;17.80;65.00;;;;;;5003253;28;95456;-71
2021/09/11 12:35:11;;;;;;;5.43;2.95;;;17.70;64.90;;;;;;5033691;28;96384;-71
2021/09/11 12:37:55;;;;;;;4.85;2.85;;;17.70;64.90;;;;;;5010930;28;95900;-72
2021/09/11 12:40:25;;;;;;;8.02;2.80;;;17.70;64.70;;;;;;5015359;28;95973;-72
2021/09/11 12:42:55;;;;;;;6.28;2.88;;;17.70;64.60;;;;;;5033932;28;95693;-71
2021/09/11 12:45:25;;;;;;;6.88;2.63;;;17.80;50.60;;;;;;5011646;28;95403;-73
2021/09/11 12:47:56;;;;;;;10.85;3.13;;;17.70;64.40;;;;;;4997758;28;101783;-72
2021/09/11 12:50:27;;;;;;;6.30;2.95;;;17.60;64.40;;;;;;4996633;28;95704;-72
2021/09/11 12:52:58;;;;;;;4.28;2.55;;;17.70;64.30;;;;;;5009114;28;95189;-73
2021/09/11 12:55:29;;;;;;;9.23;3.20;;;17.70;64.60;;;;;;5016496;28;95664;-71
2021/09/11 12:58:00;;;;;;;5.50;2.72;;;17.60;64.20;;;;;;5016028;28;95870;-72
2021/09/11 13:00:31;;;;;;;5.88;2.45;;;17.70;64.40;;;;;;5007854;28;95572;-72
2021/09/11 13:03:02;;;;;;;;;;;17.60;64.40;;;;;;5017026;28;95757;-75
2021/09/11 13:05:35;;;;;;;4.10;2.10;;;17.60;64.10;;;;;;5021331;28;96208;-79
2021/09/11 13:08:06;;;;;;;5.97;2.35;;;17.60;63.70;;;;;;4994450;28;97691;-71
2021/09/11 13:10:36;;;;;;;5.33;2.00;;;17.60;64.10;;;;;;5019764;28;97673;-74
2021/09/11 13:13:08;;;;;;;5.00;2.10;;;17.60;64.10;;;;;;5015582;28;95286;-73
2021/09/11 13:15:39;;;;;;;6.53;2.30;;;17.50;63.90;;;;;;5013356;28;97510;-73